sensor_id;sensor_type;location;lat;lon;timestamp;temperature;humidity
16479;DHT22;8350;52.316;10.530;2023-02-14T00:00:18;0.00;99.90
16479;DHT22;8350;52.316;10.530;2023-02-14T00:02:46;0.10;99.90
16479;DHT22;8350;52.316;10.530;2023-02-14T00:05:15;0.10;99.90
16479;DHT22;8350;52.316;10.530;2023-02-14T00:07:42;0.10;99.90
16479;DHT22;8350;52.316;10.530;2023-02-14T00:10:09;0.10;99.90
16479;DHT22;8350;52.316;10.530;2023-02-14T00:12:36;0.10;99.90
16479;DHT22;8350;52.316;10.530;2023-02-14T00:15:03;0.00;99.90
16479;DHT22;8350;52.316;10.530;2023-02-14T00:17:48;-0.10;99.90
16479;DHT22;8350;52.316;10.530;2023-02-14T00:20:17;-0.10;99.90
16479;DHT22;8350;52.316;10.530;2023-02-14T00:22:43;-0.10;99.90
16479;DHT22;8350;52.316;10.530;2023-02-14T00:25:12;-0.20;99.90
16479;DHT22;8350;52.316;10.530;2023-02-14T00:27:40;-0.20;99.90
16479;DHT22;8350;52.316;10.530;2023-02-14T00:30:08;-0.20;99.90
16479;DHT22;8350;52.316;10.530;2023-02-14T00:32:36;-0.20;99.90
16479;DHT22;8350;52.316;10.530;2023-02-14T00:35:04;-0.20;99.90
16479;DHT22;8350;52.316;10.530;2023-02-14T00:37:32;-0.30;99.90
16479;DHT22;8350;52.316;10.530;2023-02-14T00:39:59;-0.30;99.90
16479;DHT22;8350;52.316;10.530;2023-02-14T00:42:29;-0.30;99.90
16479;DHT22;8350;52.316;10.530;2023-02-14T00:44:56;-0.30;99.90
16479;DHT22;8350;52.316;10.530;2023-02-14T00:47:24;-0.30;99.90
16479;DHT22;8350;52.316;10.530;2023-02-14T00:49:51;-0.20;99.90
16479;DHT22;8350;52.316;10.530;2023-02-14T00:52:18;-0.20;99.90
16479;DHT22;8350;52.316;10.530;2023-02-14T00:54:46;-0.20;99.90
16479;DHT22;8350;52.316;10.530;2023-02-14T00:57:12;-0.10;99.90
16479;DHT22;8350;52.316;10.530;2023-02-14T00:59:39;-0.10;99.90
16479;DHT22;8350;52.316;10.530;2023-02-14T01:02:06;-0.10;99.90
16479;DHT22;8350;52.316;10.530;2023-02-14T01:04:33;-0.10;99.90
16479;DHT22;8350;52.316;10.530;2023-02-14T01:07:00;0.00;99.90
16479;DHT22;8350;52.316;10.530;2023-02-14T01:09:26;0.10;99.90
16479;DHT22;8350;52.316;10.530;2023-02-14T01:11:55;0.20;99.90
16479;DHT22;8350;52.316;10.530;2023-02-14T01:14:21;0.20;99.90
16479;DHT22;8350;52.316;10.530;2023-02-14T01:16:48;0.20;99.90
16479;DHT22;8350;52.316;10.530;2023-02-14T01:19:15;0.30;99.90
16479;DHT22;8350;52.316;10.530;2023-02-14T01:21:43;0.30;99.90
16479;DHT22;8350;52.316;10.530;2023-02-14T01:24:11;0.40;99.90
16479;DHT22;8350;52.316;10.530;2023-02-14T01:26:38;0.40;99.90
16479;DHT22;8350;52.316;10.530;2023-02-14T01:29:07;0.50;99.90
16479;DHT22;8350;52.316;10.530;2023-02-14T01:31:34;0.50;99.90
16479;DHT22;8350;52.316;10.530;2023-02-14T01:34:02;0.50;99.90
16479;DHT22;8350;52.316;10.530;2023-02-14T01:36:30;0.60;99.90
16479;DHT22;8350;52.316;10.530;2023-02-14T01:38:59;0.60;99.90
16479;DHT22;8350;52.316;10.530;2023-02-14T01:41:29;0.70;99.90
16479;DHT22;8350;52.316;10.530;2023-02-14T01:43:58;0.70;99.90
16479;DHT22;8350;52.316;10.530;2023-02-14T01:46:30;0.80;99.90
16479;DHT22;8350;52.316;10.530;2023-02-14T01:49:00;0.80;99.90
16479;DHT22;8350;52.316;10.530;2023-02-14T01:51:28;0.90;99.90
16479;DHT22;8350;52.316;10.530;2023-02-14T01:53:55;1.00;99.90
16479;DHT22;8350;52.316;10.530;2023-02-14T01:56:26;1.20;99.90
16479;DHT22;8350;52.316;10.530;2023-02-14T01:58:57;1.30;99.90
16479;DHT22;8350;52.316;10.530;2023-02-14T02:01:28;1.40;99.90
16479;DHT22;8350;52.316;10.530;2023-02-14T02:03:58;1.50;99.90
16479;DHT22;8350;52.316;10.530;2023-02-14T02:06:29;1.50;99.90
16479;DHT22;8350;52.316;10.530;2023-02-14T02:09:04;1.50;99.90
16479;DHT22;8350;52.316;10.530;2023-02-14T02:11:33;1.40;99.90
16479;DHT22;8350;52.316;10.530;2023-02-14T02:14:00;1.40;99.90
16479;DHT22;8350;52.316;10.530;2023-02-14T02:22:54;1.50;99.90
16479;DHT22;8350;52.316;10.530;2023-02-14T02:25:54;1.40;99.90
16479;DHT22;8350;52.316;10.530;2023-02-14T02:28:45;1.40;99.90
16479;DHT22;8350;52.316;10.530;2023-02-14T02:31:40;1.40;99.90
16479;DHT22;8350;52.316;10.530;2023-02-14T02:37:18;1.30;99.90
16479;DHT22;8350;52.316;10.530;2023-02-14T02:39:57;1.10;99.90
16479;DHT22;8350;52.316;10.530;2023-02-14T02:42:35;1.10;99.90
16479;DHT22;8350;52.316;10.530;2023-02-14T02:45:25;1.00;99.90
16479;DHT22;8350;52.316;10.530;2023-02-14T02:48:03;0.80;99.90
16479;DHT22;8350;52.316;10.530;2023-02-14T02:50:38;0.80;99.90
16479;DHT22;8350;52.316;10.530;2023-02-14T02:53:30;0.70;99.90
16479;DHT22;8350;52.316;10.530;2023-02-14T02:56:02;0.60;99.90
16479;DHT22;8350;52.316;10.530;2023-02-14T02:58:52;0.60;99.90
16479;DHT22;8350;52.316;10.530;2023-02-14T03:01:22;0.50;99.90
16479;DHT22;8350;52.316;10.530;2023-02-14T03:04:00;0.40;99.90
16479;DHT22;8350;52.316;10.530;2023-02-14T03:06:46;0.40;99.90
16479;DHT22;8350;52.316;10.530;2023-02-14T03:09:51;0.30;99.90
16479;DHT22;8350;52.316;10.530;2023-02-14T03:15:48;0.20;99.90
16479;DHT22;8350;52.316;10.530;2023-02-14T03:18:29;0.00;99.90
16479;DHT22;8350;52.316;10.530;2023-02-14T03:21:09;-0.10;99.90
16479;DHT22;8350;52.316;10.530;2023-02-14T03:23:39;-0.20;99.90
16479;DHT22;8350;52.316;10.530;2023-02-14T03:26:13;-0.20;99.90
16479;DHT22;8350;52.316;10.530;2023-02-14T03:28:44;-0.20;99.90
16479;DHT22;8350;52.316;10.530;2023-02-14T03:31:21;-0.30;99.90
16479;DHT22;8350;52.316;10.530;2023-02-14T03:33:53;-0.30;99.90
16479;DHT22;8350;52.316;10.530;2023-02-14T03:36:30;-0.30;99.90
16479;DHT22;8350;52.316;10.530;2023-02-14T03:39:02;-0.40;99.90
16479;DHT22;8350;52.316;10.530;2023-02-14T03:41:35;-0.40;99.90
16479;DHT22;8350;52.316;10.530;2023-02-14T03:44:05;-0.40;99.90
16479;DHT22;8350;52.316;10.530;2023-02-14T03:46:39;-0.40;99.90
16479;DHT22;8350;52.316;10.530;2023-02-14T03:49:11;-0.50;99.90
16479;DHT22;8350;52.316;10.530;2023-02-14T03:51:39;-0.50;99.90
16479;DHT22;8350;52.316;10.530;2023-02-14T03:54:09;-0.50;99.90
16479;DHT22;8350;52.316;10.530;2023-02-14T03:56:39;-0.70;99.90
16479;DHT22;8350;52.316;10.530;2023-02-14T03:59:11;-0.80;99.90
16479;DHT22;8350;52.316;10.530;2023-02-14T04:01:45;-0.90;99.90
16479;DHT22;8350;52.316;10.530;2023-02-14T04:04:14;-0.90;99.90
16479;DHT22;8350;52.316;10.530;2023-02-14T04:06:43;-0.90;99.90
16479;DHT22;8350;52.316;10.530;2023-02-14T04:09:09;-0.80;99.90
16479;DHT22;8350;52.316;10.530;2023-02-14T04:11:38;-0.80;99.90
16479;DHT22;8350;52.316;10.530;2023-02-14T04:14:05;-0.70;99.90
16479;DHT22;8350;52.316;10.530;2023-02-14T04:16:32;-0.80;99.90
16479;DHT22;8350;52.316;10.530;2023-02-14T04:19:20;-0.90;99.90
16479;DHT22;8350;52.316;10.530;2023-02-14T04:21:49;-1.00;99.90
16479;DHT22;8350;52.316;10.530;2023-02-14T04:24:17;-1.00;99.90
16479;DHT22;8350;52.316;10.530;2023-02-14T04:26:44;-1.00;99.90
16479;DHT22;8350;52.316;10.530;2023-02-14T04:29:18;-1.10;99.90
16479;DHT22;8350;52.316;10.530;2023-02-14T04:31:45;-1.10;99.90
16479;DHT22;8350;52.316;10.530;2023-02-14T04:34:12;-1.20;99.90
16479;DHT22;8350;52.316;10.530;2023-02-14T04:36:41;-1.20;99.90
16479;DHT22;8350;52.316;10.530;2023-02-14T04:39:07;-1.10;99.90
16479;DHT22;8350;52.316;10.530;2023-02-14T04:41:34;-1.00;99.90
16479;DHT22;8350;52.316;10.530;2023-02-14T04:44:01;-1.20;99.90
16479;DHT22;8350;52.316;10.530;2023-02-14T04:46:28;-1.20;99.90
16479;DHT22;8350;52.316;10.530;2023-02-14T04:48:54;-1.20;99.90
16479;DHT22;8350;52.316;10.530;2023-02-14T04:51:21;-1.20;99.90
16479;DHT22;8350;52.316;10.530;2023-02-14T04:53:49;-1.10;99.90
16479;DHT22;8350;52.316;10.530;2023-02-14T04:56:19;-1.10;99.90
16479;DHT22;8350;52.316;10.530;2023-02-14T04:58:46;-1.20;99.90
16479;DHT22;8350;52.316;10.530;2023-02-14T05:01:13;-1.30;99.90
16479;DHT22;8350;52.316;10.530;2023-02-14T05:03:40;-1.30;99.90
16479;DHT22;8350;52.316;10.530;2023-02-14T05:06:07;-1.30;99.90
16479;DHT22;8350;52.316;10.530;2023-02-14T05:08:34;-1.40;99.90
16479;DHT22;8350;52.316;10.530;2023-02-14T05:11:02;-1.40;99.90
16479;DHT22;8350;52.316;10.530;2023-02-14T05:13:29;-1.60;99.90
16479;DHT22;8350;52.316;10.530;2023-02-14T05:15:57;-1.60;99.90
16479;DHT22;8350;52.316;10.530;2023-02-14T05:18:24;-1.60;99.90
16479;DHT22;8350;52.316;10.530;2023-02-14T05:20:54;-1.60;99.90
16479;DHT22;8350;52.316;10.530;2023-02-14T05:23:21;-1.60;99.90
16479;DHT22;8350;52.316;10.530;2023-02-14T05:25:49;-1.60;99.90
16479;DHT22;8350;52.316;10.530;2023-02-14T05:28:18;-1.60;99.90
16479;DHT22;8350;52.316;10.530;2023-02-14T05:30:45;-1.60;99.90
16479;DHT22;8350;52.316;10.530;2023-02-14T05:33:12;-1.60;99.90
16479;DHT22;8350;52.316;10.530;2023-02-14T05:35:39;-1.50;99.90
16479;DHT22;8350;52.316;10.530;2023-02-14T05:38:05;-1.30;99.90
16479;DHT22;8350;52.316;10.530;2023-02-14T05:40:32;-1.10;99.90
16479;DHT22;8350;52.316;10.530;2023-02-14T05:42:59;-0.90;99.90
16479;DHT22;8350;52.316;10.530;2023-02-14T05:45:27;-0.70;99.90
16479;DHT22;8350;52.316;10.530;2023-02-14T05:47:54;-0.60;99.90
16479;DHT22;8350;52.316;10.530;2023-02-14T05:50:21;-0.60;99.90
16479;DHT22;8350;52.316;10.530;2023-02-14T05:52:48;-0.50;99.90
16479;DHT22;8350;52.316;10.530;2023-02-14T05:55:15;-0.50;99.90
16479;DHT22;8350;52.316;10.530;2023-02-14T05:57:42;-0.40;99.90
16479;DHT22;8350;52.316;10.530;2023-02-14T06:00:15;-0.40;99.90
16479;DHT22;8350;52.316;10.530;2023-02-14T06:02:43;-0.40;99.90
16479;DHT22;8350;52.316;10.530;2023-02-14T06:05:10;-0.30;99.90
16479;DHT22;8350;52.316;10.530;2023-02-14T06:07:37;-0.30;99.90
16479;DHT22;8350;52.316;10.530;2023-02-14T06:10:05;-0.30;99.90
16479;DHT22;8350;52.316;10.530;2023-02-14T06:12:34;-0.30;99.90
16479;DHT22;8350;52.316;10.530;2023-02-14T06:15:01;-0.20;99.90
16479;DHT22;8350;52.316;10.530;2023-02-14T06:17:28;-0.20;99.90
16479;DHT22;8350;52.316;10.530;2023-02-14T06:19:56;-0.20;99.90
16479;DHT22;8350;52.316;10.530;2023-02-14T06:22:23;-0.20;99.90
16479;DHT22;8350;52.316;10.530;2023-02-14T06:24:50;-0.10;99.90
16479;DHT22;8350;52.316;10.530;2023-02-14T06:27:16;-0.10;99.90
16479;DHT22;8350;52.316;10.530;2023-02-14T06:29:43;-0.10;99.90
16479;DHT22;8350;52.316;10.530;2023-02-14T06:32:10;-0.10;99.90
16479;DHT22;8350;52.316;10.530;2023-02-14T06:34:37;-0.10;99.90
16479;DHT22;8350;52.316;10.530;2023-02-14T06:37:05;0.00;99.90
16479;DHT22;8350;52.316;10.530;2023-02-14T06:39:32;0.00;99.90
16479;DHT22;8350;52.316;10.530;2023-02-14T06:41:59;0.00;99.90
16479;DHT22;8350;52.316;10.530;2023-02-14T06:44:29;0.00;99.90
16479;DHT22;8350;52.316;10.530;2023-02-14T06:46:56;0.00;99.90
16479;DHT22;8350;52.316;10.530;2023-02-14T06:49:22;0.10;99.90
16479;DHT22;8350;52.316;10.530;2023-02-14T06:51:49;0.10;99.90
16479;DHT22;8350;52.316;10.530;2023-02-14T06:54:18;0.10;99.90
16479;DHT22;8350;52.316;10.530;2023-02-14T06:56:44;0.10;99.90
16479;DHT22;8350;52.316;10.530;2023-02-14T06:59:11;0.10;99.90
16479;DHT22;8350;52.316;10.530;2023-02-14T07:01:38;0.20;99.90
16479;DHT22;8350;52.316;10.530;2023-02-14T07:04:04;0.10;99.90
16479;DHT22;8350;52.316;10.530;2023-02-14T07:06:34;0.10;99.90
16479;DHT22;8350;52.316;10.530;2023-02-14T07:09:01;0.20;99.90
16479;DHT22;8350;52.316;10.530;2023-02-14T07:11:29;0.20;99.90
16479;DHT22;8350;52.316;10.530;2023-02-14T07:13:59;0.20;99.90
16479;DHT22;8350;52.316;10.530;2023-02-14T07:16:26;0.30;99.90
16479;DHT22;8350;52.316;10.530;2023-02-14T07:18:53;0.20;99.90
16479;DHT22;8350;52.316;10.530;2023-02-14T07:21:20;0.30;99.90
16479;DHT22;8350;52.316;10.530;2023-02-14T07:23:47;0.30;99.90
16479;DHT22;8350;52.316;10.530;2023-02-14T07:26:16;0.40;99.90
16479;DHT22;8350;52.316;10.530;2023-02-14T07:28:45;0.30;99.90
16479;DHT22;8350;52.316;10.530;2023-02-14T07:31:13;0.40;99.90
16479;DHT22;8350;52.316;10.530;2023-02-14T07:33:42;0.40;99.90
16479;DHT22;8350;52.316;10.530;2023-02-14T07:36:11;0.50;99.90
16479;DHT22;8350;52.316;10.530;2023-02-14T07:38:38;0.50;99.90
16479;DHT22;8350;52.316;10.530;2023-02-14T07:41:04;0.50;99.90
16479;DHT22;8350;52.316;10.530;2023-02-14T07:43:31;0.50;99.90
16479;DHT22;8350;52.316;10.530;2023-02-14T07:46:00;0.50;99.90
16479;DHT22;8350;52.316;10.530;2023-02-14T07:48:27;0.60;99.90
16479;DHT22;8350;52.316;10.530;2023-02-14T07:50:54;0.60;99.90
16479;DHT22;8350;52.316;10.530;2023-02-14T07:53:22;0.60;99.90
16479;DHT22;8350;52.316;10.530;2023-02-14T07:55:49;0.60;99.90
16479;DHT22;8350;52.316;10.530;2023-02-14T07:58:16;0.70;99.90
16479;DHT22;8350;52.316;10.530;2023-02-14T08:00:43;0.70;99.90
16479;DHT22;8350;52.316;10.530;2023-02-14T08:03:14;0.70;99.90
16479;DHT22;8350;52.316;10.530;2023-02-14T08:05:41;0.80;99.90
16479;DHT22;8350;52.316;10.530;2023-02-14T08:08:08;0.80;99.90
16479;DHT22;8350;52.316;10.530;2023-02-14T08:10:35;0.80;99.90
16479;DHT22;8350;52.316;10.530;2023-02-14T08:13:02;0.80;99.90
16479;DHT22;8350;52.316;10.530;2023-02-14T08:15:30;0.80;99.90
16479;DHT22;8350;52.316;10.530;2023-02-14T08:18:16;0.80;99.90
16479;DHT22;8350;52.316;10.530;2023-02-14T08:20:43;0.90;99.90
16479;DHT22;8350;52.316;10.530;2023-02-14T08:23:10;1.00;99.90
16479;DHT22;8350;52.316;10.530;2023-02-14T08:25:37;1.00;99.90
16479;DHT22;8350;52.316;10.530;2023-02-14T08:28:04;1.00;99.90
16479;DHT22;8350;52.316;10.530;2023-02-14T08:30:34;1.00;99.90
16479;DHT22;8350;52.316;10.530;2023-02-14T08:33:01;1.10;99.90
16479;DHT22;8350;52.316;10.530;2023-02-14T08:35:29;1.10;99.90
16479;DHT22;8350;52.316;10.530;2023-02-14T08:37:56;1.10;99.90
16479;DHT22;8350;52.316;10.530;2023-02-14T08:40:23;1.20;99.90
16479;DHT22;8350;52.316;10.530;2023-02-14T08:42:50;1.20;99.90
16479;DHT22;8350;52.316;10.530;2023-02-14T08:45:17;1.30;99.90
16479;DHT22;8350;52.316;10.530;2023-02-14T08:47:46;1.30;99.90
16479;DHT22;8350;52.316;10.530;2023-02-14T08:50:15;1.40;99.90
16479;DHT22;8350;52.316;10.530;2023-02-14T08:52:45;1.50;99.90
16479;DHT22;8350;52.316;10.530;2023-02-14T08:55:12;1.50;99.90
16479;DHT22;8350;52.316;10.530;2023-02-14T08:57:39;1.60;99.90
16479;DHT22;8350;52.316;10.530;2023-02-14T09:00:07;1.60;99.90
16479;DHT22;8350;52.316;10.530;2023-02-14T09:02:34;1.50;99.90
16479;DHT22;8350;52.316;10.530;2023-02-14T09:05:01;1.60;99.90
16479;DHT22;8350;52.316;10.530;2023-02-14T09:07:28;1.60;99.90
16479;DHT22;8350;52.316;10.530;2023-02-14T09:09:56;1.70;99.90
16479;DHT22;8350;52.316;10.530;2023-02-14T09:12:23;1.70;99.90
16479;DHT22;8350;52.316;10.530;2023-02-14T09:14:49;1.80;99.90
16479;DHT22;8350;52.316;10.530;2023-02-14T09:17:16;1.90;99.90
16479;DHT22;8350;52.316;10.530;2023-02-14T09:19:43;1.90;99.90
16479;DHT22;8350;52.316;10.530;2023-02-14T09:22:10;2.00;99.90
16479;DHT22;8350;52.316;10.530;2023-02-14T09:24:38;2.10;99.90
16479;DHT22;8350;52.316;10.530;2023-02-14T09:27:07;2.10;99.90
16479;DHT22;8350;52.316;10.530;2023-02-14T09:29:35;2.20;99.90
16479;DHT22;8350;52.316;10.530;2023-02-14T09:32:02;2.20;99.90
16479;DHT22;8350;52.316;10.530;2023-02-14T09:34:29;2.40;99.90
16479;DHT22;8350;52.316;10.530;2023-02-14T09:37:15;2.40;99.90
16479;DHT22;8350;52.316;10.530;2023-02-14T09:39:42;2.40;99.90
16479;DHT22;8350;52.316;10.530;2023-02-14T09:42:22;2.50;99.90
16479;DHT22;8350;52.316;10.530;2023-02-14T09:44:54;2.60;99.90
16479;DHT22;8350;52.316;10.530;2023-02-14T09:47:29;2.80;99.90
16479;DHT22;8350;52.316;10.530;2023-02-14T09:49:59;2.90;99.90
16479;DHT22;8350;52.316;10.530;2023-02-14T09:52:29;2.90;99.90
16479;DHT22;8350;52.316;10.530;2023-02-14T09:54:58;2.80;99.90
16479;DHT22;8350;52.316;10.530;2023-02-14T09:57:35;2.80;99.90
16479;DHT22;8350;52.316;10.530;2023-02-14T10:00:16;3.00;99.90
16479;DHT22;8350;52.316;10.530;2023-02-14T10:02:54;3.10;99.90
16479;DHT22;8350;52.316;10.530;2023-02-14T10:05:24;3.20;99.90
16479;DHT22;8350;52.316;10.530;2023-02-14T10:07:57;3.30;99.90
16479;DHT22;8350;52.316;10.530;2023-02-14T10:10:27;3.30;99.90
16479;DHT22;8350;52.316;10.530;2023-02-14T10:13:04;3.40;99.90
16479;DHT22;8350;52.316;10.530;2023-02-14T10:15:37;3.50;99.90
16479;DHT22;8350;52.316;10.530;2023-02-14T10:18:10;3.60;99.90
16479;DHT22;8350;52.316;10.530;2023-02-14T10:20:41;3.60;99.90
16479;DHT22;8350;52.316;10.530;2023-02-14T10:23:20;3.50;99.90
16479;DHT22;8350;52.316;10.530;2023-02-14T10:25:52;3.40;99.90
16479;DHT22;8350;52.316;10.530;2023-02-14T10:28:29;3.50;99.90
16479;DHT22;8350;52.316;10.530;2023-02-14T10:31:04;3.50;99.90
16479;DHT22;8350;52.316;10.530;2023-02-14T10:33:34;3.60;99.90
16479;DHT22;8350;52.316;10.530;2023-02-14T10:36:07;3.70;99.90
16479;DHT22;8350;52.316;10.530;2023-02-14T10:38:42;3.70;99.90
16479;DHT22;8350;52.316;10.530;2023-02-14T10:41:22;3.80;99.90
16479;DHT22;8350;52.316;10.530;2023-02-14T10:44:07;3.80;99.90
16479;DHT22;8350;52.316;10.530;2023-02-14T10:46:41;4.00;99.90
16479;DHT22;8350;52.316;10.530;2023-02-14T10:49:25;4.10;99.90
16479;DHT22;8350;52.316;10.530;2023-02-14T10:51:57;4.00;99.90
16479;DHT22;8350;52.316;10.530;2023-02-14T10:54:30;4.10;99.90
16479;DHT22;8350;52.316;10.530;2023-02-14T10:57:00;4.10;99.90
16479;DHT22;8350;52.316;10.530;2023-02-14T10:59:32;4.20;99.90
16479;DHT22;8350;52.316;10.530;2023-02-14T11:02:00;4.20;99.90
16479;DHT22;8350;52.316;10.530;2023-02-14T11:04:29;4.20;99.90
16479;DHT22;8350;52.316;10.530;2023-02-14T11:06:56;4.30;99.90
16479;DHT22;8350;52.316;10.530;2023-02-14T11:09:23;4.30;99.90
16479;DHT22;8350;52.316;10.530;2023-02-14T11:11:52;4.40;99.90
16479;DHT22;8350;52.316;10.530;2023-02-14T11:14:23;4.60;99.90
16479;DHT22;8350;52.316;10.530;2023-02-14T11:16:52;4.70;99.90
16479;DHT22;8350;52.316;10.530;2023-02-14T11:19:22;4.80;99.90
16479;DHT22;8350;52.316;10.530;2023-02-14T11:21:51;4.90;99.90
16479;DHT22;8350;52.316;10.530;2023-02-14T11:24:24;5.10;99.90
16479;DHT22;8350;52.316;10.530;2023-02-14T11:26:54;5.20;99.90
16479;DHT22;8350;52.316;10.530;2023-02-14T11:29:25;5.40;99.90
16479;DHT22;8350;52.316;10.530;2023-02-14T11:31:54;5.60;99.90
16479;DHT22;8350;52.316;10.530;2023-02-14T11:34:33;5.80;99.90
16479;DHT22;8350;52.316;10.530;2023-02-14T11:37:01;5.90;99.90
16479;DHT22;8350;52.316;10.530;2023-02-14T11:39:30;6.00;99.90
16479;DHT22;8350;52.316;10.530;2023-02-14T11:42:00;6.10;99.90
16479;DHT22;8350;52.316;10.530;2023-02-14T11:44:31;6.20;99.90
16479;DHT22;8350;52.316;10.530;2023-02-14T11:47:18;6.40;99.90
16479;DHT22;8350;52.316;10.530;2023-02-14T11:49:54;6.40;99.90
16479;DHT22;8350;52.316;10.530;2023-02-14T11:52:21;6.60;99.90
16479;DHT22;8350;52.316;10.530;2023-02-14T11:54:54;6.70;99.90
16479;DHT22;8350;52.316;10.530;2023-02-14T11:57:26;6.80;99.90
16479;DHT22;8350;52.316;10.530;2023-02-14T11:59:54;7.00;99.90
16479;DHT22;8350;52.316;10.530;2023-02-14T12:02:31;7.30;99.90
16479;DHT22;8350;52.316;10.530;2023-02-14T12:05:04;7.50;90.90
16479;DHT22;8350;52.316;10.530;2023-02-14T12:07:34;7.60;37.00
16479;DHT22;8350;52.316;10.530;2023-02-14T12:10:18;7.80;21.70
16479;DHT22;8350;52.316;10.530;2023-02-14T12:12:50;8.00;5.80
16479;DHT22;8350;52.316;10.530;2023-02-14T12:15:25;8.20;2.10
16479;DHT22;8350;52.316;10.530;2023-02-14T12:17:59;8.40;1.00
16479;DHT22;8350;52.316;10.530;2023-02-14T12:20:37;8.60;1.00
16479;DHT22;8350;52.316;10.530;2023-02-14T12:23:13;8.70;1.00
16479;DHT22;8350;52.316;10.530;2023-02-14T12:25:46;8.70;1.00
16479;DHT22;8350;52.316;10.530;2023-02-14T12:28:17;8.90;1.00
16479;DHT22;8350;52.316;10.530;2023-02-14T12:30:45;9.00;1.00
16479;DHT22;8350;52.316;10.530;2023-02-14T12:33:18;9.00;1.00
16479;DHT22;8350;52.316;10.530;2023-02-14T12:35:53;9.10;1.00
16479;DHT22;8350;52.316;10.530;2023-02-14T12:38:29;9.20;1.00
16479;DHT22;8350;52.316;10.530;2023-02-14T12:41:11;9.30;1.00
16479;DHT22;8350;52.316;10.530;2023-02-14T12:43:47;9.40;1.00
16479;DHT22;8350;52.316;10.530;2023-02-14T12:46:32;9.40;1.00
16479;DHT22;8350;52.316;10.530;2023-02-14T12:49:17;9.60;1.00
16479;DHT22;8350;52.316;10.530;2023-02-14T12:51:56;9.70;1.00
16479;DHT22;8350;52.316;10.530;2023-02-14T12:54:42;9.80;1.00
16479;DHT22;8350;52.316;10.530;2023-02-14T12:57:23;9.80;1.00
16479;DHT22;8350;52.316;10.530;2023-02-14T13:00:03;9.80;1.00
16479;DHT22;8350;52.316;10.530;2023-02-14T13:02:59;9.90;1.00
16479;DHT22;8350;52.316;10.530;2023-02-14T13:05:43;9.90;1.00
16479;DHT22;8350;52.316;10.530;2023-02-14T13:08:22;10.10;1.00
16479;DHT22;8350;52.316;10.530;2023-02-14T13:10:57;10.20;1.00
16479;DHT22;8350;52.316;10.530;2023-02-14T13:13:31;10.20;1.00
16479;DHT22;8350;52.316;10.530;2023-02-14T13:16:06;10.30;1.00
16479;DHT22;8350;52.316;10.530;2023-02-14T13:18:46;10.30;1.00
16479;DHT22;8350;52.316;10.530;2023-02-14T13:21:20;10.40;1.00
16479;DHT22;8350;52.316;10.530;2023-02-14T13:23:49;10.40;1.00
16479;DHT22;8350;52.316;10.530;2023-02-14T13:26:19;10.40;1.00
16479;DHT22;8350;52.316;10.530;2023-02-14T13:28:49;10.40;1.00
16479;DHT22;8350;52.316;10.530;2023-02-14T13:31:18;10.40;1.00
16479;DHT22;8350;52.316;10.530;2023-02-14T13:33:50;10.40;1.00
16479;DHT22;8350;52.316;10.530;2023-02-14T13:36:19;10.50;1.00
16479;DHT22;8350;52.316;10.530;2023-02-14T13:38:48;10.50;1.00
16479;DHT22;8350;52.316;10.530;2023-02-14T13:41:16;10.60;1.00
16479;DHT22;8350;52.316;10.530;2023-02-14T13:43:54;10.70;1.00
16479;DHT22;8350;52.316;10.530;2023-02-14T13:46:44;10.70;1.00
16479;DHT22;8350;52.316;10.530;2023-02-14T13:49:25;10.60;1.00
16479;DHT22;8350;52.316;10.530;2023-02-14T13:51:55;10.50;1.00
16479;DHT22;8350;52.316;10.530;2023-02-14T13:54:32;10.50;1.00
16479;DHT22;8350;52.316;10.530;2023-02-14T13:57:29;10.50;1.00
16479;DHT22;8350;52.316;10.530;2023-02-14T14:00:34;10.60;1.00
16479;DHT22;8350;52.316;10.530;2023-02-14T14:03:02;10.60;1.00
16479;DHT22;8350;52.316;10.530;2023-02-14T14:06:02;10.60;1.00
16479;DHT22;8350;52.316;10.530;2023-02-14T14:08:46;10.60;1.00
16479;DHT22;8350;52.316;10.530;2023-02-14T14:14:35;10.50;1.00
16479;DHT22;8350;52.316;10.530;2023-02-14T14:17:20;10.40;1.00
16479;DHT22;8350;52.316;10.530;2023-02-14T14:19:47;10.30;1.00
16479;DHT22;8350;52.316;10.530;2023-02-14T14:22:14;10.20;1.00
16479;DHT22;8350;52.316;10.530;2023-02-14T14:24:55;10.10;1.00
16479;DHT22;8350;52.316;10.530;2023-02-14T14:27:26;10.00;1.00
16479;DHT22;8350;52.316;10.530;2023-02-14T14:29:55;9.80;1.00
16479;DHT22;8350;52.316;10.530;2023-02-14T14:32:27;9.80;1.00
16479;DHT22;8350;52.316;10.530;2023-02-14T14:34:56;9.60;1.00
16479;DHT22;8350;52.316;10.530;2023-02-14T14:37:26;9.60;1.00
16479;DHT22;8350;52.316;10.530;2023-02-14T14:39:57;9.50;1.00
16479;DHT22;8350;52.316;10.530;2023-02-14T14:42:28;9.50;1.00
16479;DHT22;8350;52.316;10.530;2023-02-14T14:44:58;9.50;1.00
16479;DHT22;8350;52.316;10.530;2023-02-14T14:47:28;9.60;1.00
16479;DHT22;8350;52.316;10.530;2023-02-14T14:49:58;9.50;1.00
16479;DHT22;8350;52.316;10.530;2023-02-14T14:52:33;9.30;1.00
16479;DHT22;8350;52.316;10.530;2023-02-14T14:55:03;9.20;3.00
16479;DHT22;8350;52.316;10.530;2023-02-14T14:57:31;9.00;1.00
16479;DHT22;8350;52.316;10.530;2023-02-14T15:00:18;8.90;23.80
16479;DHT22;8350;52.316;10.530;2023-02-14T15:03:04;8.80;20.20
16479;DHT22;8350;52.316;10.530;2023-02-14T15:05:33;8.60;47.70
16479;DHT22;8350;52.316;10.530;2023-02-14T15:08:13;8.40;53.30
16479;DHT22;8350;52.316;10.530;2023-02-14T15:10:47;8.10;87.80
16479;DHT22;8350;52.316;10.530;2023-02-14T15:13:15;8.00;99.90
16479;DHT22;8350;52.316;10.530;2023-02-14T15:16:00;7.90;99.90
16479;DHT22;8350;52.316;10.530;2023-02-14T15:18:27;7.80;99.90
16479;DHT22;8350;52.316;10.530;2023-02-14T15:20:54;7.60;99.90
16479;DHT22;8350;52.316;10.530;2023-02-14T15:23:23;7.30;99.90
16479;DHT22;8350;52.316;10.530;2023-02-14T15:25:51;7.30;99.90
16479;DHT22;8350;52.316;10.530;2023-02-14T15:28:28;7.30;99.90
16479;DHT22;8350;52.316;10.530;2023-02-14T15:30:58;7.10;99.90
16479;DHT22;8350;52.316;10.530;2023-02-14T15:33:25;7.00;99.90
16479;DHT22;8350;52.316;10.530;2023-02-14T15:35:53;6.80;99.90
16479;DHT22;8350;52.316;10.530;2023-02-14T15:38:22;6.70;99.90
16479;DHT22;8350;52.316;10.530;2023-02-14T15:40:51;6.60;99.90
16479;DHT22;8350;52.316;10.530;2023-02-14T15:43:27;6.60;99.90
16479;DHT22;8350;52.316;10.530;2023-02-14T15:45:58;6.60;99.90
16479;DHT22;8350;52.316;10.530;2023-02-14T15:48:28;6.50;99.90
16479;DHT22;8350;52.316;10.530;2023-02-14T15:50:56;6.40;99.90
16479;DHT22;8350;52.316;10.530;2023-02-14T15:53:38;6.30;99.90
16479;DHT22;8350;52.316;10.530;2023-02-14T15:56:11;6.30;99.90
16479;DHT22;8350;52.316;10.530;2023-02-14T15:58:39;6.20;99.90
16479;DHT22;8350;52.316;10.530;2023-02-14T16:01:06;6.20;99.90
16479;DHT22;8350;52.316;10.530;2023-02-14T16:03:38;6.10;99.90
16479;DHT22;8350;52.316;10.530;2023-02-14T16:06:13;6.10;99.90
16479;DHT22;8350;52.316;10.530;2023-02-14T16:08:41;6.10;99.90
16479;DHT22;8350;52.316;10.530;2023-02-14T16:11:14;6.20;99.90
16479;DHT22;8350;52.316;10.530;2023-02-14T16:13:43;6.10;99.90
16479;DHT22;8350;52.316;10.530;2023-02-14T16:16:11;6.00;99.90
16479;DHT22;8350;52.316;10.530;2023-02-14T16:18:46;6.00;99.90
16479;DHT22;8350;52.316;10.530;2023-02-14T16:21:19;5.90;99.90
16479;DHT22;8350;52.316;10.530;2023-02-14T16:24:10;5.90;99.90